sensor_id;sensor_type;location;lat;lon;timestamp;pressure;altitude;pressure_sealevel;temperature;humidity
2681;BME280;1350;42.134;24.708;2023-04-07T00:01:32;99256.91;;;7.20;52.70
2681;BME280;1350;42.134;24.708;2023-04-07T00:03:58;99259.31;;;7.26;52.58
2681;BME280;1350;42.134;24.708;2023-04-07T00:06:25;99255.06;;;7.22;52.93
2681;BME280;1350;42.134;24.708;2023-04-07T00:08:53;99257.72;;;7.22;53.29
2681;BME280;1350;42.134;24.708;2023-04-07T00:11:19;99254.88;;;7.26;54.07
2681;BME280;1350;42.134;24.708;2023-04-07T00:13:46;99248.25;;;7.18;53.88
2681;BME280;1350;42.134;24.708;2023-04-07T00:16:13;99246.56;;;7.15;53.82
2681;BME280;1350;42.134;24.708;2023-04-07T00:18:41;99255.41;;;7.14;53.75
2681;BME280;1350;42.134;24.708;2023-04-07T00:21:07;99257.38;;;7.09;54.07
2681;BME280;1350;42.134;24.708;2023-04-07T00:23:34;99243.44;;;7.07;53.53
2681;BME280;1350;42.134;24.708;2023-04-07T00:26:01;99253.19;;;7.05;54.16
2681;BME280;1350;42.134;24.708;2023-04-07T00:28:28;99252.38;;;7.03;53.60
2681;BME280;1350;42.134;24.708;2023-04-07T00:30:54;99250.94;;;6.96;53.84
2681;BME280;1350;42.134;24.708;2023-04-07T00:33:21;99253.44;;;6.99;53.18
2681;BME280;1350;42.134;24.708;2023-04-07T00:35:49;99252.25;;;7.06;54.40
2681;BME280;1350;42.134;24.708;2023-04-07T00:38:16;99251.72;;;6.98;53.18
2681;BME280;1350;42.134;24.708;2023-04-07T00:40:43;99251.84;;;6.95;54.08
2681;BME280;1350;42.134;24.708;2023-04-07T00:43:09;99255.41;;;6.94;54.74
2681;BME280;1350;42.134;24.708;2023-04-07T00:45:36;99255.56;;;6.91;54.84
2681;BME280;1350;42.134;24.708;2023-04-07T00:48:03;99259.19;;;6.88;54.80
2681;BME280;1350;42.134;24.708;2023-04-07T00:50:30;99256.06;;;6.79;54.95
2681;BME280;1350;42.134;24.708;2023-04-07T00:52:58;99256.06;;;6.79;54.29
2681;BME280;1350;42.134;24.708;2023-04-07T00:55:26;99265.75;;;6.78;54.17
2681;BME280;1350;42.134;24.708;2023-04-07T00:57:53;99261.28;;;6.80;54.28
2681;BME280;1350;42.134;24.708;2023-04-07T01:00:20;99265.75;;;6.78;54.43
2681;BME280;1350;42.134;24.708;2023-04-07T01:02:52;99256.00;;;6.80;53.78
2681;BME280;1350;42.134;24.708;2023-04-07T01:05:26;99264.06;;;6.77;54.55
2681;BME280;1350;42.134;24.708;2023-04-07T01:08:02;99261.59;;;6.73;54.57
2681;BME280;1350;42.134;24.708;2023-04-07T01:10:40;99265.88;;;6.75;54.83
2681;BME280;1350;42.134;24.708;2023-04-07T01:13:11;99257.44;;;6.67;54.20
2681;BME280;1350;42.134;24.708;2023-04-07T01:15:41;99261.47;;;6.76;54.57
2681;BME280;1350;42.134;24.708;2023-04-07T01:18:15;99252.78;;;6.74;54.05
2681;BME280;1350;42.134;24.708;2023-04-07T01:20:44;99257.25;;;6.72;54.76
2681;BME280;1350;42.134;24.708;2023-04-07T01:23:21;99259.22;;;6.67;53.91
2681;BME280;1350;42.134;24.708;2023-04-07T01:26:02;99258.25;;;6.69;54.45
2681;BME280;1350;42.134;24.708;2023-04-07T01:28:40;99256.84;;;6.61;54.30
2681;BME280;1350;42.134;24.708;2023-04-07T01:31:12;99260.41;;;6.60;53.92
2681;BME280;1350;42.134;24.708;2023-04-07T01:33:43;99259.56;;;6.59;54.27
2681;BME280;1350;42.134;24.708;2023-04-07T01:36:11;99267.34;;;6.62;54.18
2681;BME280;1350;42.134;24.708;2023-04-07T01:38:38;99266.72;;;6.56;54.65
2681;BME280;1350;42.134;24.708;2023-04-07T01:41:08;99267.09;;;6.47;54.78
2681;BME280;1350;42.134;24.708;2023-04-07T01:43:37;99270.22;;;6.56;55.06
2681;BME280;1350;42.134;24.708;2023-04-07T01:46:04;99263.34;;;6.52;55.16
2681;BME280;1350;42.134;24.708;2023-04-07T01:48:34;99271.44;;;6.48;54.85
2681;BME280;1350;42.134;24.708;2023-04-07T01:51:02;99269.66;;;6.48;54.78
2681;BME280;1350;42.134;24.708;2023-04-07T01:53:30;99261.97;;;6.44;54.37
2681;BME280;1350;42.134;24.708;2023-04-07T01:55:57;99267.34;;;6.41;54.66
2681;BME280;1350;42.134;24.708;2023-04-07T01:58:23;99273.94;;;6.51;53.97
2681;BME280;1350;42.134;24.708;2023-04-07T02:00:51;99265.31;;;6.47;53.98
2681;BME280;1350;42.134;24.708;2023-04-07T02:03:22;99270.50;;;6.49;54.23
2681;BME280;1350;42.134;24.708;2023-04-07T02:05:56;99265.19;;;6.50;54.33
2681;BME280;1350;42.134;24.708;2023-04-07T02:08:25;99267.88;;;6.49;54.99
2681;BME280;1350;42.134;24.708;2023-04-07T02:10:54;99257.47;;;6.46;54.44
2681;BME280;1350;42.134;24.708;2023-04-07T02:13:22;99265.56;;;6.41;54.49
2681;BME280;1350;42.134;24.708;2023-04-07T02:15:50;99257.84;;;6.37;54.16
2681;BME280;1350;42.134;24.708;2023-04-07T02:18:19;99265.03;;;6.33;54.38
2681;BME280;1350;42.134;24.708;2023-04-07T02:20:47;99263.97;;;6.37;54.49
2681;BME280;1350;42.134;24.708;2023-04-07T02:23:15;99262.63;;;6.27;54.09
2681;BME280;1350;42.134;24.708;2023-04-07T02:25:42;99260.47;;;6.37;54.51
2681;BME280;1350;42.134;24.708;2023-04-07T02:28:09;99258.16;;;6.29;54.21
2681;BME280;1350;42.134;24.708;2023-04-07T02:30:35;99261.28;;;6.39;53.93
2681;BME280;1350;42.134;24.708;2023-04-07T02:33:02;99255.53;;;6.29;54.11
2681;BME280;1350;42.134;24.708;2023-04-07T02:35:29;99262.56;;;6.29;54.61
2681;BME280;1350;42.134;24.708;2023-04-07T02:37:56;99262.63;;;6.27;54.75
2681;BME280;1350;42.134;24.708;2023-04-07T02:40:24;99259.84;;;6.32;54.68
2681;BME280;1350;42.134;24.708;2023-04-07T02:42:51;99266.44;;;6.20;55.32
2681;BME280;1350;42.134;24.708;2023-04-07T02:45:17;99264.78;;;6.18;54.25
2681;BME280;1350;42.134;24.708;2023-04-07T02:47:44;99268.31;;;6.17;55.20
2681;BME280;1350;42.134;24.708;2023-04-07T02:50:11;99267.53;;;6.15;55.29
2681;BME280;1350;42.134;24.708;2023-04-07T02:52:37;99265.69;;;6.17;55.37
2681;BME280;1350;42.134;24.708;2023-04-07T02:55:05;99267.72;;;6.10;55.66
2681;BME280;1350;42.134;24.708;2023-04-07T02:57:34;99267.19;;;6.24;55.36
2681;BME280;1350;42.134;24.708;2023-04-07T03:00:01;99264.97;;;6.13;56.04
2681;BME280;1350;42.134;24.708;2023-04-07T03:02:28;99265.88;;;6.12;55.13
2681;BME280;1350;42.134;24.708;2023-04-07T03:04:54;99269.72;;;6.04;55.54
2681;BME280;1350;42.134;24.708;2023-04-07T03:07:21;99272.47;;;6.01;56.19
2681;BME280;1350;42.134;24.708;2023-04-07T03:09:48;99268.06;;;6.01;56.18
2681;BME280;1350;42.134;24.708;2023-04-07T03:12:15;99272.06;;;6.11;55.60
2681;BME280;1350;42.134;24.708;2023-04-07T03:14:43;99275.78;;;6.06;56.14
2681;BME280;1350;42.134;24.708;2023-04-07T03:17:09;99275.75;;;6.07;56.30
2681;BME280;1350;42.134;24.708;2023-04-07T03:19:36;99270.47;;;6.07;55.95
2681;BME280;1350;42.134;24.708;2023-04-07T03:22:03;99273.81;;;6.11;56.71
2681;BME280;1350;42.134;24.708;2023-04-07T03:24:29;99274.88;;;6.07;55.91
2681;BME280;1350;42.134;24.708;2023-04-07T03:26:56;99271.19;;;6.11;56.19
2681;BME280;1350;42.134;24.708;2023-04-07T03:29:23;99276.09;;;6.20;56.39
2681;BME280;1350;42.134;24.708;2023-04-07T03:31:51;99268.50;;;6.12;56.53
2681;BME280;1350;42.134;24.708;2023-04-07T03:34:18;99277.19;;;6.14;56.05
2681;BME280;1350;42.134;24.708;2023-04-07T03:36:44;99275.25;;;6.19;55.63
2681;BME280;1350;42.134;24.708;2023-04-07T03:39:11;99278.91;;;6.15;55.51
2681;BME280;1350;42.134;24.708;2023-04-07T03:41:38;99283.94;;;6.21;54.87
2681;BME280;1350;42.134;24.708;2023-04-07T03:44:05;99287.44;;;6.22;55.24
2681;BME280;1350;42.134;24.708;2023-04-07T03:46:31;99292.06;;;6.15;54.67
2681;BME280;1350;42.134;24.708;2023-04-07T03:49:00;99292.31;;;6.31;55.67
2681;BME280;1350;42.134;24.708;2023-04-07T03:51:26;99292.56;;;6.25;55.95
2681;BME280;1350;42.134;24.708;2023-04-07T03:53:53;99295.06;;;6.28;55.61
2681;BME280;1350;42.134;24.708;2023-04-07T03:56:20;99290.06;;;6.22;55.07
2681;BME280;1350;42.134;24.708;2023-04-07T03:58:47;99294.94;;;6.31;55.71
2681;BME280;1350;42.134;24.708;2023-04-07T04:01:14;99299.25;;;6.33;56.08
2681;BME280;1350;42.134;24.708;2023-04-07T04:03:41;99302.78;;;6.32;55.88
2681;BME280;1350;42.134;24.708;2023-04-07T04:06:09;99300.03;;;6.35;56.11
2681;BME280;1350;42.134;24.708;2023-04-07T04:08:36;99298.44;;;6.31;56.61
2681;BME280;1350;42.134;24.708;2023-04-07T04:11:02;99299.84;;;6.18;56.34
2681;BME280;1350;42.134;24.708;2023-04-07T04:13:29;99297.81;;;6.25;55.88
2681;BME280;1350;42.134;24.708;2023-04-07T04:15:56;99294.16;;;6.29;56.46
2681;BME280;1350;42.134;24.708;2023-04-07T04:18:23;99299.91;;;6.38;55.85
2681;BME280;1350;42.134;24.708;2023-04-07T04:20:50;99303.47;;;6.37;55.32
2681;BME280;1350;42.134;24.708;2023-04-07T04:23:18;99308.44;;;6.45;55.45
2681;BME280;1350;42.134;24.708;2023-04-07T04:25:44;99312.09;;;6.62;55.94
2681;BME280;1350;42.134;24.708;2023-04-07T04:28:11;99316.06;;;6.72;55.28
2681;BME280;1350;42.134;24.708;2023-04-07T04:30:38;99318.53;;;6.97;55.09
2681;BME280;1350;42.134;24.708;2023-04-07T04:33:05;99319.88;;;7.27;55.41
2681;BME280;1350;42.134;24.708;2023-04-07T04:35:33;99315.22;;;7.52;55.29
2681;BME280;1350;42.134;24.708;2023-04-07T04:37:59;99325.22;;;7.64;55.01
2681;BME280;1350;42.134;24.708;2023-04-07T04:40:28;99325.53;;;7.77;54.36
2681;BME280;1350;42.134;24.708;2023-04-07T04:42:54;99326.56;;;7.93;54.92
2681;BME280;1350;42.134;24.708;2023-04-07T04:45:21;99329.66;;;8.02;54.42
2681;BME280;1350;42.134;24.708;2023-04-07T04:47:48;99326.44;;;7.96;53.58
2681;BME280;1350;42.134;24.708;2023-04-07T04:50:15;99331.94;;;7.91;55.20
2681;BME280;1350;42.134;24.708;2023-04-07T04:52:41;99334.50;;;7.93;54.87
2681;BME280;1350;42.134;24.708;2023-04-07T04:55:09;99337.28;;;7.90;55.23
2681;BME280;1350;42.134;24.708;2023-04-07T04:57:37;99343.53;;;7.87;54.41
2681;BME280;1350;42.134;24.708;2023-04-07T05:00:05;99332.91;;;7.89;54.45
2681;BME280;1350;42.134;24.708;2023-04-07T05:02:32;99338.84;;;7.94;53.94
2681;BME280;1350;42.134;24.708;2023-04-07T05:04:59;99351.19;;;8.12;53.38
2681;BME280;1350;42.134;24.708;2023-04-07T05:07:26;99350.19;;;8.14;53.75
2681;BME280;1350;42.134;24.708;2023-04-07T05:09:52;99350.94;;;8.18;52.39
2681;BME280;1350;42.134;24.708;2023-04-07T05:12:19;99354.81;;;8.29;52.41
2681;BME280;1350;42.134;24.708;2023-04-07T05:14:48;99354.44;;;8.37;52.37
2681;BME280;1350;42.134;24.708;2023-04-07T05:17:14;99358.38;;;8.47;52.12
2681;BME280;1350;42.134;24.708;2023-04-07T05:19:41;99357.34;;;8.68;51.15
2681;BME280;1350;42.134;24.708;2023-04-07T05:22:08;99356.38;;;8.88;51.33
2681;BME280;1350;42.134;24.708;2023-04-07T05:24:35;99364.72;;;9.14;51.91
2681;BME280;1350;42.134;24.708;2023-04-07T05:27:01;99363.22;;;9.09;51.03
2681;BME280;1350;42.134;24.708;2023-04-07T05:29:28;99362.63;;;9.21;50.77
2681;BME280;1350;42.134;24.708;2023-04-07T05:31:56;99358.75;;;9.45;49.51
2681;BME280;1350;42.134;24.708;2023-04-07T05:34:23;99362.19;;;9.79;48.93
2681;BME280;1350;42.134;24.708;2023-04-07T05:36:50;99363.13;;;9.78;48.06
2681;BME280;1350;42.134;24.708;2023-04-07T05:39:17;99374.25;;;9.85;47.73
2681;BME280;1350;42.134;24.708;2023-04-07T05:41:44;99367.59;;;10.10;46.47
2681;BME280;1350;42.134;24.708;2023-04-07T05:44:10;99359.56;;;10.12;46.15
2681;BME280;1350;42.134;24.708;2023-04-07T05:46:37;99368.50;;;10.27;46.59
2681;BME280;1350;42.134;24.708;2023-04-07T05:49:05;99359.09;;;10.52;46.87
2681;BME280;1350;42.134;24.708;2023-04-07T05:51:32;99372.53;;;10.65;46.69
2681;BME280;1350;42.134;24.708;2023-04-07T05:54:00;99364.16;;;10.72;46.22
2681;BME280;1350;42.134;24.708;2023-04-07T05:56:28;99368.00;;;10.51;45.70
2681;BME280;1350;42.134;24.708;2023-04-07T05:58:55;99375.44;;;10.45;45.10
2681;BME280;1350;42.134;24.708;2023-04-07T06:01:23;99369.00;;;10.49;46.06
2681;BME280;1350;42.134;24.708;2023-04-07T06:03:50;99372.88;;;10.43;45.42
2681;BME280;1350;42.134;24.708;2023-04-07T06:06:18;99371.00;;;10.61;44.68
2681;BME280;1350;42.134;24.708;2023-04-07T06:08:44;99367.22;;;10.80;44.72
2681;BME280;1350;42.134;24.708;2023-04-07T06:11:11;99377.91;;;10.94;44.31
2681;BME280;1350;42.134;24.708;2023-04-07T06:13:38;99373.56;;;11.23;44.02
2681;BME280;1350;42.134;24.708;2023-04-07T06:16:05;99376.72;;;11.29;43.38
2681;BME280;1350;42.134;24.708;2023-04-07T06:18:32;99375.41;;;11.36;42.98
2681;BME280;1350;42.134;24.708;2023-04-07T06:20:58;99370.53;;;11.74;45.41
2681;BME280;1350;42.134;24.708;2023-04-07T06:23:27;99379.78;;;11.67;44.02
2681;BME280;1350;42.134;24.708;2023-04-07T06:25:53;99376.88;;;11.71;44.95
2681;BME280;1350;42.134;24.708;2023-04-07T06:28:20;99382.13;;;12.01;44.32
2681;BME280;1350;42.134;24.708;2023-04-07T06:30:47;99385.22;;;11.79;44.05
2681;BME280;1350;42.134;24.708;2023-04-07T06:33:13;99381.94;;;12.04;44.10
2681;BME280;1350;42.134;24.708;2023-04-07T06:35:40;99380.44;;;12.28;43.25
2681;BME280;1350;42.134;24.708;2023-04-07T06:38:07;99383.59;;;12.75;43.49
2681;BME280;1350;42.134;24.708;2023-04-07T06:40:37;99380.03;;;13.03;42.41
2681;BME280;1350;42.134;24.708;2023-04-07T06:43:03;99387.50;;;13.10;42.01
2681;BME280;1350;42.134;24.708;2023-04-07T06:45:30;99386.69;;;13.62;42.00
2681;BME280;1350;42.134;24.708;2023-04-07T06:47:57;99387.38;;;14.15;39.67
2681;BME280;1350;42.134;24.708;2023-04-07T06:50:24;99386.34;;;14.30;40.80
2681;BME280;1350;42.134;24.708;2023-04-07T06:52:50;99381.47;;;14.96;40.19
2681;BME280;1350;42.134;24.708;2023-04-07T06:55:17;99383.22;;;14.97;38.62
2681;BME280;1350;42.134;24.708;2023-04-07T06:57:45;99390.72;;;15.40;38.71
2681;BME280;1350;42.134;24.708;2023-04-07T07:00:12;99386.16;;;15.29;38.92
2681;BME280;1350;42.134;24.708;2023-04-07T07:02:39;99389.34;;;15.58;37.83
2681;BME280;1350;42.134;24.708;2023-04-07T07:05:06;99391.72;;;15.39;38.58
2681;BME280;1350;42.134;24.708;2023-04-07T07:07:33;99386.94;;;16.11;38.17
2681;BME280;1350;42.134;24.708;2023-04-07T07:10:00;99389.84;;;15.97;36.11
2681;BME280;1350;42.134;24.708;2023-04-07T07:12:26;99386.19;;;15.64;36.07
2681;BME280;1350;42.134;24.708;2023-04-07T07:14:55;99394.47;;;15.37;36.12
2681;BME280;1350;42.134;24.708;2023-04-07T07:17:22;99387.97;;;15.28;35.86
2681;BME280;1350;42.134;24.708;2023-04-07T07:19:48;99388.34;;;15.48;37.87
2681;BME280;1350;42.134;24.708;2023-04-07T07:22:15;99396.38;;;15.35;37.33
2681;BME280;1350;42.134;24.708;2023-04-07T07:24:42;99396.56;;;15.79;36.54
2681;BME280;1350;42.134;24.708;2023-04-07T07:27:09;99389.72;;;16.21;36.43
2681;BME280;1350;42.134;24.708;2023-04-07T07:29:36;99391.97;;;16.49;35.65
2681;BME280;1350;42.134;24.708;2023-04-07T07:32:04;99390.34;;;16.24;35.45
2681;BME280;1350;42.134;24.708;2023-04-07T07:34:31;99392.94;;;16.37;34.53
2681;BME280;1350;42.134;24.708;2023-04-07T07:36:58;99391.00;;;16.39;35.36
2681;BME280;1350;42.134;24.708;2023-04-07T07:39:25;99395.44;;;16.16;34.82
2681;BME280;1350;42.134;24.708;2023-04-07T07:41:52;99391.00;;;16.50;34.93
2681;BME280;1350;42.134;24.708;2023-04-07T07:44:19;99386.56;;;16.93;34.42
2681;BME280;1350;42.134;24.708;2023-04-07T07:46:47;99380.53;;;16.69;34.01
2681;BME280;1350;42.134;24.708;2023-04-07T07:49:15;99376.88;;;16.70;35.18
2681;BME280;1350;42.134;24.708;2023-04-07T07:51:42;99381.41;;;16.69;34.60
2681;BME280;1350;42.134;24.708;2023-04-07T07:54:10;99371.78;;;17.21;35.27
2681;BME280;1350;42.134;24.708;2023-04-07T07:56:37;99377.59;;;17.89;34.64
2681;BME280;1350;42.134;24.708;2023-04-07T07:59:04;99376.78;;;18.39;34.04
2681;BME280;1350;42.134;24.708;2023-04-07T08:01:31;99375.00;;;18.28;32.47
2681;BME280;1350;42.134;24.708;2023-04-07T08:03:58;99366.97;;;18.28;32.97
2681;BME280;1350;42.134;24.708;2023-04-07T08:06:26;99372.91;;;18.53;32.08
2681;BME280;1350;42.134;24.708;2023-04-07T08:08:55;99362.13;;;18.83;30.76
2681;BME280;1350;42.134;24.708;2023-04-07T08:11:23;99371.41;;;19.18;30.38
2681;BME280;1350;42.134;24.708;2023-04-07T08:13:49;99370.75;;;19.35;30.64
2681;BME280;1350;42.134;24.708;2023-04-07T08:16:18;99368.44;;;19.21;30.62
2681;BME280;1350;42.134;24.708;2023-04-07T08:18:45;99366.16;;;19.17;31.05
2681;BME280;1350;42.134;24.708;2023-04-07T08:21:12;99369.31;;;19.41;30.84
2681;BME280;1350;42.134;24.708;2023-04-07T08:23:42;99363.75;;;19.14;29.81
2681;BME280;1350;42.134;24.708;2023-04-07T08:26:10;99354.38;;;18.50;30.54
2681;BME280;1350;42.134;24.708;2023-04-07T08:28:37;99359.50;;;18.53;31.01
2681;BME280;1350;42.134;24.708;2023-04-07T08:31:04;99360.16;;;18.85;30.98
2681;BME280;1350;42.134;24.708;2023-04-07T08:33:30;99355.31;;;19.37;30.34
2681;BME280;1350;42.134;24.708;2023-04-07T08:35:57;99354.47;;;19.46;31.33
2681;BME280;1350;42.134;24.708;2023-04-07T08:38:24;99355.72;;;19.33;30.37
2681;BME280;1350;42.134;24.708;2023-04-07T08:40:56;99351.97;;;19.05;30.71
2681;BME280;1350;42.134;24.708;2023-04-07T08:43:25;99357.75;;;18.82;30.64
2681;BME280;1350;42.134;24.708;2023-04-07T08:45:55;99350.94;;;19.46;31.44
2681;BME280;1350;42.134;24.708;2023-04-07T08:48:23;99344.66;;;18.07;31.26
2681;BME280;1350;42.134;24.708;2023-04-07T08:50:51;99340.09;;;18.98;31.93
2681;BME280;1350;42.134;24.708;2023-04-07T08:53:23;99338.84;;;19.21;38.99
2681;BME280;1350;42.134;24.708;2023-04-07T08:55:55;99343.72;;;19.27;35.88
2681;BME280;1350;42.134;24.708;2023-04-07T08:58:23;99335.50;;;19.48;33.43
2681;BME280;1350;42.134;24.708;2023-04-07T09:00:50;99340.47;;;19.43;33.72
2681;BME280;1350;42.134;24.708;2023-04-07T09:03:18;99343.16;;;19.62;33.21
2681;BME280;1350;42.134;24.708;2023-04-07T09:05:45;99339.03;;;19.77;34.34
2681;BME280;1350;42.134;24.708;2023-04-07T09:08:12;99345.88;;;18.94;32.47
2681;BME280;1350;42.134;24.708;2023-04-07T09:10:39;99341.75;;;18.90;34.64
2681;BME280;1350;42.134;24.708;2023-04-07T09:13:07;99344.69;;;19.36;33.63
2681;BME280;1350;42.134;24.708;2023-04-07T09:15:34;99338.31;;;19.65;33.45
2681;BME280;1350;42.134;24.708;2023-04-07T09:18:01;99332.91;;;19.84;34.49
2681;BME280;1350;42.134;24.708;2023-04-07T09:20:57;99337.28;;;19.09;33.98
2681;BME280;1350;42.134;24.708;2023-04-07T09:23:28;99327.81;;;19.81;33.95
2681;BME280;1350;42.134;24.708;2023-04-07T09:25:55;99326.00;;;19.72;35.09
2681;BME280;1350;42.134;24.708;2023-04-07T09:28:37;99326.44;;;19.68;33.42
2681;BME280;1350;42.134;24.708;2023-04-07T09:31:04;99327.00;;;19.43;33.29
2681;BME280;1350;42.134;24.708;2023-04-07T09:33:33;99330.91;;;19.10;33.29
2681;BME280;1350;42.134;24.708;2023-04-07T09:36:00;99321.94;;;18.72;33.74
2681;BME280;1350;42.134;24.708;2023-04-07T09:38:32;99318.63;;;19.27;32.73
2681;BME280;1350;42.134;24.708;2023-04-07T09:41:05;99323.97;;;19.93;33.95
2681;BME280;1350;42.134;24.708;2023-04-07T09:43:35;99321.50;;;19.54;32.41
2681;BME280;1350;42.134;24.708;2023-04-07T09:46:11;99317.75;;;18.98;32.75
2681;BME280;1350;42.134;24.708;2023-04-07T09:48:38;99322.31;;;18.27;31.34
2681;BME280;1350;42.134;24.708;2023-04-07T09:51:06;99319.91;;;18.55;33.15
2681;BME280;1350;42.134;24.708;2023-04-07T09:53:44;99314.44;;;18.35;32.43
2681;BME280;1350;42.134;24.708;2023-04-07T09:56:14;99311.50;;;18.78;34.56
2681;BME280;1350;42.134;24.708;2023-04-07T09:58:45;99315.69;;;19.39;35.66
2681;BME280;1350;42.134;24.708;2023-04-07T10:01:13;99316.06;;;19.06;33.33
2681;BME280;1350;42.134;24.708;2023-04-07T10:03:41;99317.63;;;19.09;33.81
2681;BME280;1350;42.134;24.708;2023-04-07T10:06:07;99317.34;;;19.21;32.12
2681;BME280;1350;42.134;24.708;2023-04-07T10:08:36;99322.06;;;18.10;32.41
2681;BME280;1350;42.134;24.708;2023-04-07T10:11:04;99314.91;;;18.99;33.30
2681;BME280;1350;42.134;24.708;2023-04-07T10:13:32;99316.06;;;19.06;33.45
2681;BME280;1350;42.134;24.708;2023-04-07T10:16:03;99310.25;;;19.01;34.15
2681;BME280;1350;42.134;24.708;2023-04-07T10:18:31;99307.75;;;19.66;32.82
2681;BME280;1350;42.134;24.708;2023-04-07T10:21:00;99313.22;;;19.74;33.25
2681;BME280;1350;42.134;24.708;2023-04-07T10:23:47;99318.94;;;19.43;32.30
2681;BME280;1350;42.134;24.708;2023-04-07T10:26:21;99314.53;;;19.23;33.58
2681;BME280;1350;42.134;24.708;2023-04-07T10:28:54;99313.56;;;19.33;32.44
2681;BME280;1350;42.134;24.708;2023-04-07T10:31:26;99315.94;;;19.08;32.46
2681;BME280;1350;42.134;24.708;2023-04-07T10:33:53;99312.41;;;19.26;32.79
2681;BME280;1350;42.134;24.708;2023-04-07T10:36:21;99316.53;;;19.30;31.98
2681;BME280;1350;42.134;24.708;2023-04-07T10:39:18;99309.00;;;19.62;30.69
2681;BME280;1350;42.134;24.708;2023-04-07T10:41:47;99308.69;;;18.40;31.84
2681;BME280;1350;42.134;24.708;2023-04-07T10:44:45;99310.25;;;18.12;32.28
2681;BME280;1350;42.134;24.708;2023-04-07T10:47:15;99316.88;;;16.72;33.07
2681;BME280;1350;42.134;24.708;2023-04-07T10:50:14;99322.97;;;16.19;33.80
2681;BME280;1350;42.134;24.708;2023-04-07T10:52:42;99305.09;;;16.53;34.18
2681;BME280;1350;42.134;24.708;2023-04-07T10:55:29;99299.94;;;17.15;33.26
2681;BME280;1350;42.134;24.708;2023-04-07T10:58:22;99292.88;;;17.66;34.07
2681;BME280;1350;42.134;24.708;2023-04-07T11:01:17;99301.00;;;17.23;33.24
2681;BME280;1350;42.134;24.708;2023-04-07T11:04:04;99299.22;;;17.13;33.22
2681;BME280;1350;42.134;24.708;2023-04-07T11:06:32;99290.63;;;16.66;33.71
2681;BME280;1350;42.134;24.708;2023-04-07T11:08:59;99291.72;;;17.07;34.07
2681;BME280;1350;42.134;24.708;2023-04-07T11:11:40;99299.84;;;16.73;33.56
2681;BME280;1350;42.134;24.708;2023-04-07T11:14:07;99292.22;;;16.25;35.25
2681;BME280;1350;42.134;24.708;2023-04-07T11:16:36;99292.84;;;16.17;34.91
2681;BME280;1350;42.134;24.708;2023-04-07T11:19:04;99282.97;;;16.40;35.27
2681;BME280;1350;42.134;24.708;2023-04-07T11:21:31;99290.59;;;17.09;34.29
2681;BME280;1350;42.134;24.708;2023-04-07T11:23:58;99307.09;;;16.82;34.03
2681;BME280;1350;42.134;24.708;2023-04-07T11:26:24;99298.28;;;16.38;35.04
2681;BME280;1350;42.134;24.708;2023-04-07T11:28:53;99288.69;;;16.24;35.81
2681;BME280;1350;42.134;24.708;2023-04-07T11:31:23;99284.91;;;16.60;35.58
2681;BME280;1350;42.134;24.708;2023-04-07T11:33:53;99298.13;;;15.73;35.37
2681;BME280;1350;42.134;24.708;2023-04-07T11:36:30;99295.00;;;14.99;36.43
2681;BME280;1350;42.134;24.708;2023-04-07T11:38:58;99287.31;;;15.64;36.03
2681;BME280;1350;42.134;24.708;2023-04-07T11:41:27;99292.66;;;15.75;35.36
2681;BME280;1350;42.134;24.708;2023-04-07T11:44:08;99295.88;;;16.13;35.20
2681;BME280;1350;42.134;24.708;2023-04-07T11:46:35;99291.84;;;16.07;35.69
2681;BME280;1350;42.134;24.708;2023-04-07T11:49:10;99288.56;;;15.82;36.10
2681;BME280;1350;42.134;24.708;2023-04-07T11:51:39;99286.16;;;15.90;35.65
2681;BME280;1350;42.134;24.708;2023-04-07T11:54:06;99274.41;;;15.47;36.18
2681;BME280;1350;42.134;24.708;2023-04-07T11:56:44;99269.34;;;16.21;35.45
2681;BME280;1350;42.134;24.708;2023-04-07T11:59:19;99281.72;;;15.78;35.67
2681;BME280;1350;42.134;24.708;2023-04-07T12:01:47;99286.16;;;15.90;36.17
2681;BME280;1350;42.134;24.708;2023-04-07T12:04:14;99282.81;;;15.64;36.13
2681;BME280;1350;42.134;24.708;2023-04-07T12:06:43;99279.19;;;15.76;36.13
2681;BME280;1350;42.134;24.708;2023-04-07T12:09:28;99275.56;;;16.10;36.34
2681;BME280;1350;42.134;24.708;2023-04-07T12:11:56;99277.25;;;16.22;34.95
2681;BME280;1350;42.134;24.708;2023-04-07T12:14:23;99269.72;;;16.16;36.34
2681;BME280;1350;42.134;24.708;2023-04-07T12:16:50;99276.00;;;16.59;36.11
2681;BME280;1350;42.134;24.708;2023-04-07T12:19:20;99277.47;;;16.41;35.71
2681;BME280;1350;42.134;24.708;2023-04-07T12:21:48;99289.41;;;15.71;36.30
2681;BME280;1350;42.134;24.708;2023-04-07T12:24:15;99292.38;;;14.86;36.83
2681;BME280;1350;42.134;24.708;2023-04-07T12:26:42;99276.31;;;14.39;38.03
2681;BME280;1350;42.134;24.708;2023-04-07T12:29:09;99276.28;;;14.99;38.15
2681;BME280;1350;42.134;24.708;2023-04-07T12:31:36;99266.88;;;15.41;36.89
2681;BME280;1350;42.134;24.708;2023-04-07T12:34:02;99277.84;;;15.36;36.82
2681;BME280;1350;42.134;24.708;2023-04-07T12:36:29;99271.28;;;15.29;37.78
2681;BME280;1350;42.134;24.708;2023-04-07T12:38:57;99266.72;;;15.07;38.49
2681;BME280;1350;42.134;24.708;2023-04-07T12:41:24;99265.41;;;15.13;38.07
2681;BME280;1350;42.134;24.708;2023-04-07T12:43:52;99275.66;;;14.95;38.72
2681;BME280;1350;42.134;24.708;2023-04-07T12:46:19;99262.38;;;15.06;39.11
2681;BME280;1350;42.134;24.708;2023-04-07T12:48:46;99259.19;;;15.01;38.15
2681;BME280;1350;42.134;24.708;2023-04-07T12:51:13;99253.19;;;15.21;38.44
2681;BME280;1350;42.134;24.708;2023-04-07T12:53:40;99250.19;;;15.37;38.98
2681;BME280;1350;42.134;24.708;2023-04-07T12:56:09;99255.94;;;15.44;38.66
2681;BME280;1350;42.134;24.708;2023-04-07T12:58:37;99275.94;;;15.03;39.54
2681;BME280;1350;42.134;24.708;2023-04-07T13:01:04;99260.81;;;14.91;40.03
2681;BME280;1350;42.134;24.708;2023-04-07T13:03:31;99255.47;;;14.80;39.38
2681;BME280;1350;42.134;24.708;2023-04-07T13:05:57;99266.28;;;14.90;39.33
2681;BME280;1350;42.134;24.708;2023-04-07T13:08:26;99270.25;;;15.08;39.54
2681;BME280;1350;42.134;24.708;2023-04-07T13:10:53;99255.59;;;14.90;39.55
2681;BME280;1350;42.134;24.708;2023-04-07T13:13:21;99247.28;;;14.94;39.90
2681;BME280;1350;42.134;24.708;2023-04-07T13:15:48;99243.19;;;15.12;40.30
2681;BME280;1350;42.134;24.708;2023-04-07T13:18:15;99258.53;;;15.21;40.06
2681;BME280;1350;42.134;24.708;2023-04-07T13:20:42;99254.59;;;15.03;39.70
2681;BME280;1350;42.134;24.708;2023-04-07T13:23:09;99249.44;;;14.89;40.34